sensor_id;sensor_type;location;lat;lon;timestamp;P1;durP1;ratioP1;P2;durP2;ratioP2
7306;SDS011;3694;48.732;9.248;2022-07-26T00:00:12;3.60;;;1.70;;
7306;SDS011;3694;48.732;9.248;2022-07-26T00:02:39;4.13;;;1.40;;
7306;SDS011;3694;48.732;9.248;2022-07-26T00:05:05;3.90;;;1.60;;
7306;SDS011;3694;48.732;9.248;2022-07-26T00:07:31;2.80;;;1.70;;
7306;SDS011;3694;48.732;9.248;2022-07-26T00:09:57;2.33;;;1.57;;
7306;SDS011;3694;48.732;9.248;2022-07-26T00:12:22;2.23;;;1.40;;
7306;SDS011;3694;48.732;9.248;2022-07-26T00:14:48;2.87;;;1.57;;
7306;SDS011;3694;48.732;9.248;2022-07-26T00:17:14;2.27;;;1.67;;
7306;SDS011;3694;48.732;9.248;2022-07-26T00:19:40;1.97;;;1.57;;
7306;SDS011;3694;48.732;9.248;2022-07-26T00:22:05;2.63;;;1.40;;
7306;SDS011;3694;48.732;9.248;2022-07-26T00:24:51;2.43;;;1.63;;
7306;SDS011;3694;48.732;9.248;2022-07-26T00:27:17;1.33;;;1.20;;
7306;SDS011;3694;48.732;9.248;2022-07-26T00:29:42;1.90;;;1.17;;
7306;SDS011;3694;48.732;9.248;2022-07-26T00:32:08;2.53;;;1.50;;
7306;SDS011;3694;48.732;9.248;2022-07-26T00:34:34;1.10;;;1.00;;
7306;SDS011;3694;48.732;9.248;2022-07-26T00:36:59;3.13;;;1.43;;
7306;SDS011;3694;48.732;9.248;2022-07-26T00:39:25;1.60;;;1.50;;
7306;SDS011;3694;48.732;9.248;2022-07-26T00:41:50;2.07;;;1.40;;
7306;SDS011;3694;48.732;9.248;2022-07-26T00:44:16;2.30;;;1.40;;
7306;SDS011;3694;48.732;9.248;2022-07-26T00:46:42;1.60;;;1.50;;
7306;SDS011;3694;48.732;9.248;2022-07-26T00:49:09;2.43;;;1.67;;
7306;SDS011;3694;48.732;9.248;2022-07-26T00:51:35;2.57;;;1.77;;
7306;SDS011;3694;48.732;9.248;2022-07-26T00:54:02;4.23;;;1.60;;
7306;SDS011;3694;48.732;9.248;2022-07-26T00:56:28;2.33;;;1.43;;
7306;SDS011;3694;48.732;9.248;2022-07-26T00:58:54;2.80;;;1.50;;
7306;SDS011;3694;48.732;9.248;2022-07-26T01:01:19;2.77;;;1.30;;
7306;SDS011;3694;48.732;9.248;2022-07-26T01:03:45;2.20;;;1.13;;
7306;SDS011;3694;48.732;9.248;2022-07-26T01:06:18;1.30;;;1.20;;
7306;SDS011;3694;48.732;9.248;2022-07-26T01:08:44;2.00;;;1.40;;
7306;SDS011;3694;48.732;9.248;2022-07-26T01:11:10;3.23;;;1.47;;
7306;SDS011;3694;48.732;9.248;2022-07-26T01:13:36;2.53;;;1.73;;
7306;SDS011;3694;48.732;9.248;2022-07-26T01:16:02;2.03;;;1.20;;
7306;SDS011;3694;48.732;9.248;2022-07-26T01:18:27;2.20;;;1.37;;
7306;SDS011;3694;48.732;9.248;2022-07-26T01:20:53;1.93;;;1.07;;
7306;SDS011;3694;48.732;9.248;2022-07-26T01:23:21;2.83;;;1.30;;
7306;SDS011;3694;48.732;9.248;2022-07-26T01:25:47;3.10;;;1.30;;
7306;SDS011;3694;48.732;9.248;2022-07-26T01:28:12;1.53;;;1.10;;
7306;SDS011;3694;48.732;9.248;2022-07-26T01:30:38;1.90;;;1.30;;
7306;SDS011;3694;48.732;9.248;2022-07-26T01:33:03;2.03;;;1.20;;
7306;SDS011;3694;48.732;9.248;2022-07-26T01:35:29;1.43;;;1.27;;
7306;SDS011;3694;48.732;9.248;2022-07-26T01:37:55;2.20;;;1.20;;
7306;SDS011;3694;48.732;9.248;2022-07-26T01:40:20;1.80;;;1.27;;
7306;SDS011;3694;48.732;9.248;2022-07-26T01:42:46;1.60;;;1.20;;
7306;SDS011;3694;48.732;9.248;2022-07-26T01:45:11;2.00;;;1.50;;
7306;SDS011;3694;48.732;9.248;2022-07-26T01:47:37;2.17;;;1.43;;
7306;SDS011;3694;48.732;9.248;2022-07-26T01:50:04;2.87;;;1.50;;
7306;SDS011;3694;48.732;9.248;2022-07-26T01:52:31;1.57;;;1.47;;
7306;SDS011;3694;48.732;9.248;2022-07-26T01:54:58;1.33;;;1.23;;
7306;SDS011;3694;48.732;9.248;2022-07-26T01:57:23;4.07;;;1.63;;
7306;SDS011;3694;48.732;9.248;2022-07-26T01:59:49;2.93;;;1.87;;
7306;SDS011;3694;48.732;9.248;2022-07-26T02:02:14;2.30;;;1.90;;
7306;SDS011;3694;48.732;9.248;2022-07-26T02:04:40;2.70;;;1.30;;
7306;SDS011;3694;48.732;9.248;2022-07-26T02:07:28;1.40;;;1.30;;
7306;SDS011;3694;48.732;9.248;2022-07-26T02:09:55;1.67;;;1.43;;
7306;SDS011;3694;48.732;9.248;2022-07-26T02:12:21;1.70;;;1.43;;
7306;SDS011;3694;48.732;9.248;2022-07-26T02:14:47;2.03;;;1.37;;
7306;SDS011;3694;48.732;9.248;2022-07-26T02:17:13;2.27;;;1.47;;
7306;SDS011;3694;48.732;9.248;2022-07-26T02:19:38;2.93;;;1.40;;
7306;SDS011;3694;48.732;9.248;2022-07-26T02:22:04;1.40;;;1.30;;
7306;SDS011;3694;48.732;9.248;2022-07-26T02:24:30;1.80;;;1.47;;
7306;SDS011;3694;48.732;9.248;2022-07-26T02:26:56;1.80;;;1.70;;
7306;SDS011;3694;48.732;9.248;2022-07-26T02:29:22;1.53;;;1.37;;
7306;SDS011;3694;48.732;9.248;2022-07-26T02:31:48;2.07;;;1.50;;
7306;SDS011;3694;48.732;9.248;2022-07-26T02:34:14;4.30;;;1.40;;
7306;SDS011;3694;48.732;9.248;2022-07-26T02:36:40;1.40;;;1.30;;
7306;SDS011;3694;48.732;9.248;2022-07-26T02:39:06;1.97;;;1.47;;
7306;SDS011;3694;48.732;9.248;2022-07-26T02:41:31;1.63;;;1.37;;
7306;SDS011;3694;48.732;9.248;2022-07-26T02:43:57;1.70;;;1.30;;
7306;SDS011;3694;48.732;9.248;2022-07-26T02:46:23;2.20;;;1.47;;
7306;SDS011;3694;48.732;9.248;2022-07-26T02:48:48;1.33;;;1.20;;
7306;SDS011;3694;48.732;9.248;2022-07-26T02:51:14;1.40;;;1.30;;
7306;SDS011;3694;48.732;9.248;2022-07-26T02:53:40;1.50;;;1.20;;
7306;SDS011;3694;48.732;9.248;2022-07-26T02:56:06;2.23;;;1.27;;
7306;SDS011;3694;48.732;9.248;2022-07-26T02:58:32;1.13;;;1.03;;
7306;SDS011;3694;48.732;9.248;2022-07-26T03:00:57;3.23;;;1.20;;
7306;SDS011;3694;48.732;9.248;2022-07-26T03:03:23;1.77;;;1.20;;
7306;SDS011;3694;48.732;9.248;2022-07-26T03:05:49;1.33;;;1.20;;
7306;SDS011;3694;48.732;9.248;2022-07-26T03:08:14;1.13;;;1.00;;
7306;SDS011;3694;48.732;9.248;2022-07-26T03:10:40;1.30;;;1.20;;
7306;SDS011;3694;48.732;9.248;2022-07-26T03:13:05;1.23;;;0.97;;
7306;SDS011;3694;48.732;9.248;2022-07-26T03:15:31;1.83;;;1.33;;
7306;SDS011;3694;48.732;9.248;2022-07-26T03:17:56;1.57;;;1.43;;
7306;SDS011;3694;48.732;9.248;2022-07-26T03:20:22;4.00;;;1.33;;
7306;SDS011;3694;48.732;9.248;2022-07-26T03:22:48;1.37;;;1.23;;
7306;SDS011;3694;48.732;9.248;2022-07-26T03:25:14;1.10;;;1.10;;
7306;SDS011;3694;48.732;9.248;2022-07-26T03:27:39;1.83;;;1.17;;
7306;SDS011;3694;48.732;9.248;2022-07-26T03:30:05;1.83;;;1.00;;
7306;SDS011;3694;48.732;9.248;2022-07-26T03:32:32;1.43;;;1.30;;
7306;SDS011;3694;48.732;9.248;2022-07-26T03:34:57;1.37;;;1.20;;
7306;SDS011;3694;48.732;9.248;2022-07-26T03:37:23;2.10;;;1.27;;
7306;SDS011;3694;48.732;9.248;2022-07-26T03:39:48;1.40;;;1.20;;
7306;SDS011;3694;48.732;9.248;2022-07-26T03:42:14;1.57;;;1.40;;
7306;SDS011;3694;48.732;9.248;2022-07-26T03:44:40;1.60;;;1.27;;
7306;SDS011;3694;48.732;9.248;2022-07-26T03:47:06;1.53;;;1.20;;
7306;SDS011;3694;48.732;9.248;2022-07-26T03:49:31;1.87;;;1.03;;
7306;SDS011;3694;48.732;9.248;2022-07-26T03:51:57;1.33;;;1.10;;
7306;SDS011;3694;48.732;9.248;2022-07-26T03:54:23;2.20;;;1.20;;
7306;SDS011;3694;48.732;9.248;2022-07-26T03:56:48;1.33;;;1.23;;
7306;SDS011;3694;48.732;9.248;2022-07-26T03:59:14;2.23;;;1.23;;
7306;SDS011;3694;48.732;9.248;2022-07-26T04:01:42;1.23;;;1.17;;
7306;SDS011;3694;48.732;9.248;2022-07-26T04:04:12;3.30;;;1.37;;
7306;SDS011;3694;48.732;9.248;2022-07-26T04:06:39;1.37;;;1.27;;
7306;SDS011;3694;48.732;9.248;2022-07-26T04:09:06;2.07;;;1.30;;
7306;SDS011;3694;48.732;9.248;2022-07-26T04:11:32;1.40;;;1.30;;
7306;SDS011;3694;48.732;9.248;2022-07-26T04:13:58;3.37;;;1.10;;
7306;SDS011;3694;48.732;9.248;2022-07-26T04:16:25;1.40;;;1.30;;
7306;SDS011;3694;48.732;9.248;2022-07-26T04:18:51;1.60;;;1.50;;
7306;SDS011;3694;48.732;9.248;2022-07-26T04:21:17;2.53;;;1.37;;
7306;SDS011;3694;48.732;9.248;2022-07-26T04:23:43;1.83;;;1.50;;
7306;SDS011;3694;48.732;9.248;2022-07-26T04:26:08;2.33;;;1.60;;
7306;SDS011;3694;48.732;9.248;2022-07-26T04:28:34;1.87;;;1.73;;
7306;SDS011;3694;48.732;9.248;2022-07-26T04:31:00;2.83;;;1.40;;
7306;SDS011;3694;48.732;9.248;2022-07-26T04:33:26;3.13;;;1.13;;
7306;SDS011;3694;48.732;9.248;2022-07-26T04:35:52;1.30;;;1.20;;
7306;SDS011;3694;48.732;9.248;2022-07-26T04:38:18;2.37;;;1.90;;
7306;SDS011;3694;48.732;9.248;2022-07-26T04:40:44;2.13;;;1.80;;
7306;SDS011;3694;48.732;9.248;2022-07-26T04:43:09;2.87;;;1.80;;
7306;SDS011;3694;48.732;9.248;2022-07-26T04:45:35;1.97;;;1.80;;
7306;SDS011;3694;48.732;9.248;2022-07-26T04:48:01;2.87;;;1.90;;
7306;SDS011;3694;48.732;9.248;2022-07-26T04:50:26;2.07;;;1.60;;
7306;SDS011;3694;48.732;9.248;2022-07-26T04:52:52;3.13;;;2.00;;
7306;SDS011;3694;48.732;9.248;2022-07-26T04:55:18;2.27;;;1.80;;
7306;SDS011;3694;48.732;9.248;2022-07-26T04:57:45;1.93;;;1.83;;
7306;SDS011;3694;48.732;9.248;2022-07-26T05:00:12;2.27;;;1.77;;
7306;SDS011;3694;48.732;9.248;2022-07-26T05:02:38;1.60;;;1.50;;
7306;SDS011;3694;48.732;9.248;2022-07-26T05:05:04;2.37;;;1.60;;
7306;SDS011;3694;48.732;9.248;2022-07-26T05:07:43;1.77;;;1.67;;
7306;SDS011;3694;48.732;9.248;2022-07-26T05:10:11;1.83;;;1.70;;
7306;SDS011;3694;48.732;9.248;2022-07-26T05:12:37;2.53;;;1.80;;
7306;SDS011;3694;48.732;9.248;2022-07-26T05:15:03;2.57;;;1.87;;
7306;SDS011;3694;48.732;9.248;2022-07-26T05:17:30;2.10;;;1.90;;
7306;SDS011;3694;48.732;9.248;2022-07-26T05:19:55;3.00;;;1.80;;
7306;SDS011;3694;48.732;9.248;2022-07-26T05:22:21;4.00;;;1.90;;
7306;SDS011;3694;48.732;9.248;2022-07-26T05:24:46;2.07;;;1.87;;
7306;SDS011;3694;48.732;9.248;2022-07-26T05:27:12;2.77;;;1.70;;
7306;SDS011;3694;48.732;9.248;2022-07-26T05:29:38;2.90;;;1.60;;
7306;SDS011;3694;48.732;9.248;2022-07-26T05:32:03;1.40;;;1.30;;
7306;SDS011;3694;48.732;9.248;2022-07-26T05:34:29;1.73;;;1.57;;
7306;SDS011;3694;48.732;9.248;2022-07-26T05:36:55;2.10;;;1.60;;
7306;SDS011;3694;48.732;9.248;2022-07-26T05:39:21;2.30;;;1.63;;
7306;SDS011;3694;48.732;9.248;2022-07-26T05:41:46;1.77;;;1.47;;
7306;SDS011;3694;48.732;9.248;2022-07-26T05:44:12;3.03;;;1.63;;
7306;SDS011;3694;48.732;9.248;2022-07-26T05:46:38;2.00;;;1.80;;
7306;SDS011;3694;48.732;9.248;2022-07-26T05:49:04;2.43;;;2.07;;
7306;SDS011;3694;48.732;9.248;2022-07-26T05:51:30;2.10;;;1.90;;
7306;SDS011;3694;48.732;9.248;2022-07-26T05:53:56;2.77;;;1.67;;
7306;SDS011;3694;48.732;9.248;2022-07-26T05:56:22;2.87;;;1.70;;
7306;SDS011;3694;48.732;9.248;2022-07-26T05:58:47;2.87;;;1.47;;
7306;SDS011;3694;48.732;9.248;2022-07-26T06:01:13;1.90;;;1.70;;
7306;SDS011;3694;48.732;9.248;2022-07-26T06:03:39;3.93;;;2.17;;
7306;SDS011;3694;48.732;9.248;2022-07-26T06:06:04;1.93;;;1.80;;
7306;SDS011;3694;48.732;9.248;2022-07-26T06:08:30;2.90;;;2.00;;
7306;SDS011;3694;48.732;9.248;2022-07-26T06:10:56;2.23;;;1.73;;
7306;SDS011;3694;48.732;9.248;2022-07-26T06:13:22;2.63;;;1.73;;
7306;SDS011;3694;48.732;9.248;2022-07-26T06:15:48;2.50;;;1.90;;
7306;SDS011;3694;48.732;9.248;2022-07-26T06:18:13;2.50;;;1.80;;
7306;SDS011;3694;48.732;9.248;2022-07-26T06:20:39;3.53;;;1.80;;
7306;SDS011;3694;48.732;9.248;2022-07-26T06:23:06;3.03;;;1.57;;
7306;SDS011;3694;48.732;9.248;2022-07-26T06:25:32;1.83;;;1.57;;
7306;SDS011;3694;48.732;9.248;2022-07-26T06:28:00;4.70;;;1.60;;
7306;SDS011;3694;48.732;9.248;2022-07-26T06:30:27;3.57;;;1.70;;
7306;SDS011;3694;48.732;9.248;2022-07-26T06:32:52;3.40;;;1.40;;
7306;SDS011;3694;48.732;9.248;2022-07-26T06:35:18;3.50;;;2.10;;
7306;SDS011;3694;48.732;9.248;2022-07-26T06:37:44;4.63;;;1.70;;
7306;SDS011;3694;48.732;9.248;2022-07-26T06:40:09;3.60;;;1.60;;
7306;SDS011;3694;48.732;9.248;2022-07-26T06:42:36;2.83;;;1.40;;
7306;SDS011;3694;48.732;9.248;2022-07-26T06:45:02;4.53;;;1.50;;
7306;SDS011;3694;48.732;9.248;2022-07-26T06:47:29;3.67;;;1.23;;
7306;SDS011;3694;48.732;9.248;2022-07-26T06:49:54;2.23;;;1.40;;
7306;SDS011;3694;48.732;9.248;2022-07-26T06:52:20;3.97;;;1.30;;
7306;SDS011;3694;48.732;9.248;2022-07-26T06:54:45;1.80;;;1.00;;
7306;SDS011;3694;48.732;9.248;2022-07-26T06:57:11;2.13;;;1.20;;
7306;SDS011;3694;48.732;9.248;2022-07-26T06:59:37;2.53;;;1.10;;
7306;SDS011;3694;48.732;9.248;2022-07-26T07:02:03;3.35;;;1.45;;
7306;SDS011;3694;48.732;9.248;2022-07-26T07:04:30;3.53;;;1.25;;
7306;SDS011;3694;48.732;9.248;2022-07-26T07:06:56;4.47;;;1.30;;
7306;SDS011;3694;48.732;9.248;2022-07-26T07:09:26;1.15;;;0.85;;
7306;SDS011;3694;48.732;9.248;2022-07-26T07:11:52;2.80;;;1.27;;
7306;SDS011;3694;48.732;9.248;2022-07-26T07:14:19;3.13;;;1.50;;
7306;SDS011;3694;48.732;9.248;2022-07-26T07:16:44;2.53;;;1.10;;
7306;SDS011;3694;48.732;9.248;2022-07-26T07:19:10;3.90;;;1.05;;
7306;SDS011;3694;48.732;9.248;2022-07-26T07:21:37;4.53;;;1.40;;
7306;SDS011;3694;48.732;9.248;2022-07-26T07:24:03;1.42;;;0.93;;
7306;SDS011;3694;48.732;9.248;2022-07-26T07:26:29;4.53;;;0.85;;
7306;SDS011;3694;48.732;9.248;2022-07-26T07:28:56;2.13;;;0.90;;
7306;SDS011;3694;48.732;9.248;2022-07-26T07:31:22;0.70;;;0.70;;
7306;SDS011;3694;48.732;9.248;2022-07-26T07:33:51;0.95;;;0.88;;
7306;SDS011;3694;48.732;9.248;2022-07-26T07:36:16;2.55;;;1.10;;
7306;SDS011;3694;48.732;9.248;2022-07-26T07:38:45;1.33;;;0.80;;
7306;SDS011;3694;48.732;9.248;2022-07-26T07:41:12;2.15;;;0.98;;
7306;SDS011;3694;48.732;9.248;2022-07-26T07:43:37;1.38;;;0.85;;
7306;SDS011;3694;48.732;9.248;2022-07-26T07:46:03;2.83;;;1.00;;
7306;SDS011;3694;48.732;9.248;2022-07-26T07:48:29;1.80;;;0.90;;
7306;SDS011;3694;48.732;9.248;2022-07-26T07:50:54;2.67;;;0.90;;
7306;SDS011;3694;48.732;9.248;2022-07-26T07:53:20;2.47;;;1.00;;
7306;SDS011;3694;48.732;9.248;2022-07-26T07:55:46;3.08;;;1.10;;
7306;SDS011;3694;48.732;9.248;2022-07-26T07:58:11;2.17;;;0.93;;
7306;SDS011;3694;48.732;9.248;2022-07-26T08:00:38;4.10;;;1.10;;
7306;SDS011;3694;48.732;9.248;2022-07-26T08:03:03;3.22;;;0.95;;
7306;SDS011;3694;48.732;9.248;2022-07-26T08:05:29;2.08;;;1.10;;
7306;SDS011;3694;48.732;9.248;2022-07-26T08:07:55;0.98;;;0.77;;
7306;SDS011;3694;48.732;9.248;2022-07-26T08:10:20;2.47;;;1.20;;
7306;SDS011;3694;48.732;9.248;2022-07-26T08:12:46;2.05;;;0.93;;
7306;SDS011;3694;48.732;9.248;2022-07-26T08:15:11;4.88;;;0.98;;
7306;SDS011;3694;48.732;9.248;2022-07-26T08:17:37;2.75;;;0.90;;
7306;SDS011;3694;48.732;9.248;2022-07-26T08:20:03;2.58;;;1.05;;
7306;SDS011;3694;48.732;9.248;2022-07-26T08:22:29;2.95;;;1.00;;
7306;SDS011;3694;48.732;9.248;2022-07-26T08:24:54;2.90;;;1.08;;
7306;SDS011;3694;48.732;9.248;2022-07-26T08:27:20;1.17;;;0.98;;
7306;SDS011;3694;48.732;9.248;2022-07-26T08:29:45;2.53;;;0.90;;
7306;SDS011;3694;48.732;9.248;2022-07-26T08:32:11;1.25;;;0.93;;
7306;SDS011;3694;48.732;9.248;2022-07-26T08:34:36;2.10;;;1.02;;
7306;SDS011;3694;48.732;9.248;2022-07-26T08:37:02;6.00;;;1.10;;
7306;SDS011;3694;48.732;9.248;2022-07-26T08:39:27;3.03;;;1.20;;
7306;SDS011;3694;48.732;9.248;2022-07-26T08:41:53;3.17;;;1.10;;
7306;SDS011;3694;48.732;9.248;2022-07-26T08:44:19;1.25;;;0.80;;
7306;SDS011;3694;48.732;9.248;2022-07-26T08:46:44;3.28;;;0.75;;
7306;SDS011;3694;48.732;9.248;2022-07-26T08:49:10;1.55;;;0.90;;
7306;SDS011;3694;48.732;9.248;2022-07-26T08:51:43;1.25;;;0.80;;
7306;SDS011;3694;48.732;9.248;2022-07-26T08:54:09;2.05;;;0.90;;
7306;SDS011;3694;48.732;9.248;2022-07-26T08:56:40;1.63;;;0.77;;
7306;SDS011;3694;48.732;9.248;2022-07-26T08:59:13;2.42;;;0.90;;
7306;SDS011;3694;48.732;9.248;2022-07-26T09:02:00;2.38;;;0.80;;
7306;SDS011;3694;48.732;9.248;2022-07-26T09:04:31;2.92;;;0.95;;
7306;SDS011;3694;48.732;9.248;2022-07-26T09:06:59;1.35;;;0.85;;
7306;SDS011;3694;48.732;9.248;2022-07-26T09:09:27;2.97;;;1.05;;
7306;SDS011;3694;48.732;9.248;2022-07-26T09:11:54;1.92;;;0.93;;
7306;SDS011;3694;48.732;9.248;2022-07-26T09:14:21;1.27;;;0.80;;
7306;SDS011;3694;48.732;9.248;2022-07-26T09:16:58;4.97;;;1.50;;
7306;SDS011;3694;48.732;9.248;2022-07-26T09:19:25;2.60;;;0.70;;
7306;SDS011;3694;48.732;9.248;2022-07-26T09:21:51;3.47;;;0.98;;
7306;SDS011;3694;48.732;9.248;2022-07-26T09:24:29;1.85;;;0.85;;
7306;SDS011;3694;48.732;9.248;2022-07-26T09:27:00;1.30;;;1.00;;
7306;SDS011;3694;48.732;9.248;2022-07-26T09:29:28;1.77;;;0.85;;
7306;SDS011;3694;48.732;9.248;2022-07-26T09:32:07;1.73;;;0.77;;
7306;SDS011;3694;48.732;9.248;2022-07-26T09:34:41;2.17;;;0.90;;
7306;SDS011;3694;48.732;9.248;2022-07-26T09:37:07;1.65;;;0.60;;
7306;SDS011;3694;48.732;9.248;2022-07-26T09:39:37;2.47;;;0.82;;
7306;SDS011;3694;48.732;9.248;2022-07-26T09:42:18;1.50;;;0.82;;
7306;SDS011;3694;48.732;9.248;2022-07-26T09:44:43;3.75;;;0.80;;
7306;SDS011;3694;48.732;9.248;2022-07-26T09:47:09;3.72;;;1.08;;
7306;SDS011;3694;48.732;9.248;2022-07-26T09:49:34;3.00;;;0.90;;
7306;SDS011;3694;48.732;9.248;2022-07-26T09:52:00;1.23;;;0.93;;
7306;SDS011;3694;48.732;9.248;2022-07-26T09:56:55;4.45;;;0.77;;
7306;SDS011;3694;48.732;9.248;2022-07-26T09:59:22;4.72;;;1.13;;
7306;SDS011;3694;48.732;9.248;2022-07-26T10:01:50;1.23;;;0.70;;
7306;SDS011;3694;48.732;9.248;2022-07-26T10:04:17;2.63;;;1.00;;
7306;SDS011;3694;48.732;9.248;2022-07-26T10:06:44;1.40;;;0.80;;
7306;SDS011;3694;48.732;9.248;2022-07-26T10:09:10;1.38;;;0.90;;
7306;SDS011;3694;48.732;9.248;2022-07-26T10:16:57;1.65;;;0.85;;
7306;SDS011;3694;48.732;9.248;2022-07-26T10:19:36;1.53;;;0.90;;
7306;SDS011;3694;48.732;9.248;2022-07-26T10:24:48;1.83;;;0.63;;
7306;SDS011;3694;48.732;9.248;2022-07-26T10:32:40;4.83;;;0.70;;
7306;SDS011;3694;48.732;9.248;2022-07-26T10:38:12;2.53;;;0.90;;
7306;SDS011;3694;48.732;9.248;2022-07-26T10:43:26;1.10;;;0.50;;
7306;SDS011;3694;48.732;9.248;2022-07-26T10:48:56;2.57;;;1.10;;
7306;SDS011;3694;48.732;9.248;2022-07-26T10:51:25;1.60;;;0.70;;
7306;SDS011;3694;48.732;9.248;2022-07-26T10:53:58;1.20;;;0.68;;
7306;SDS011;3694;48.732;9.248;2022-07-26T10:56:32;0.80;;;0.80;;
7306;SDS011;3694;48.732;9.248;2022-07-26T10:58:57;1.83;;;0.80;;
7306;SDS011;3694;48.732;9.248;2022-07-26T11:01:40;1.55;;;0.80;;
7306;SDS011;3694;48.732;9.248;2022-07-26T11:04:22;1.30;;;0.60;;
7306;SDS011;3694;48.732;9.248;2022-07-26T11:06:49;5.40;;;1.10;;
7306;SDS011;3694;48.732;9.248;2022-07-26T11:09:15;2.10;;;0.82;;
7306;SDS011;3694;48.732;9.248;2022-07-26T11:11:43;1.95;;;1.10;;
7306;SDS011;3694;48.732;9.248;2022-07-26T11:14:11;1.35;;;1.00;;
7306;SDS011;3694;48.732;9.248;2022-07-26T11:16:48;2.45;;;0.95;;
7306;SDS011;3694;48.732;9.248;2022-07-26T11:19:15;0.60;;;0.55;;
7306;SDS011;3694;48.732;9.248;2022-07-26T11:21:46;1.15;;;0.90;;
7306;SDS011;3694;48.732;9.248;2022-07-26T11:24:26;1.15;;;0.73;;
7306;SDS011;3694;48.732;9.248;2022-07-26T11:26:52;2.97;;;0.90;;
7306;SDS011;3694;48.732;9.248;2022-07-26T11:29:28;1.60;;;1.00;;
7306;SDS011;3694;48.732;9.248;2022-07-26T11:31:56;1.53;;;0.70;;
7306;SDS011;3694;48.732;9.248;2022-07-26T11:34:22;2.33;;;1.00;;
7306;SDS011;3694;48.732;9.248;2022-07-26T11:36:49;2.13;;;0.80;;
7306;SDS011;3694;48.732;9.248;2022-07-26T11:39:20;1.55;;;0.70;;
7306;SDS011;3694;48.732;9.248;2022-07-26T11:41:47;1.77;;;0.80;;
7306;SDS011;3694;48.732;9.248;2022-07-26T11:44:18;2.78;;;0.70;;
7306;SDS011;3694;48.732;9.248;2022-07-26T11:46:45;0.70;;;0.60;;
7306;SDS011;3694;48.732;9.248;2022-07-26T11:49:18;6.30;;;0.88;;
7306;SDS011;3694;48.732;9.248;2022-07-26T11:51:53;2.23;;;0.80;;
7306;SDS011;3694;48.732;9.248;2022-07-26T11:54:21;1.13;;;0.80;;
7306;SDS011;3694;48.732;9.248;2022-07-26T11:56:48;0.88;;;0.75;;
7306;SDS011;3694;48.732;9.248;2022-07-26T11:59:15;3.15;;;0.90;;
7306;SDS011;3694;48.732;9.248;2022-07-26T12:01:43;0.77;;;0.75;;
7306;SDS011;3694;48.732;9.248;2022-07-26T12:04:16;1.50;;;0.80;;
7306;SDS011;3694;48.732;9.248;2022-07-26T12:06:47;0.73;;;0.60;;
7306;SDS011;3694;48.732;9.248;2022-07-26T12:09:26;1.88;;;0.80;;
7306;SDS011;3694;48.732;9.248;2022-07-26T12:12:00;1.27;;;0.70;;
7306;SDS011;3694;48.732;9.248;2022-07-26T12:14:28;1.15;;;0.82;;
7306;SDS011;3694;48.732;9.248;2022-07-26T12:17:08;1.52;;;0.70;;
7306;SDS011;3694;48.732;9.248;2022-07-26T12:19:39;1.83;;;0.73;;
7306;SDS011;3694;48.732;9.248;2022-07-26T12:22:15;2.17;;;0.70;;
7306;SDS011;3694;48.732;9.248;2022-07-26T12:29:45;0.80;;;0.75;;
7306;SDS011;3694;48.732;9.248;2022-07-26T12:32:20;0.80;;;0.70;;
7306;SDS011;3694;48.732;9.248;2022-07-26T12:34:56;1.40;;;0.80;;
7306;SDS011;3694;48.732;9.248;2022-07-26T12:37:24;0.77;;;0.77;;
7306;SDS011;3694;48.732;9.248;2022-07-26T12:40:07;0.80;;;0.80;;
7306;SDS011;3694;48.732;9.248;2022-07-26T12:42:34;0.95;;;0.73;;
7306;SDS011;3694;48.732;9.248;2022-07-26T12:45:03;1.48;;;0.95;;
7306;SDS011;3694;48.732;9.248;2022-07-26T12:47:31;2.20;;;0.88;;
7306;SDS011;3694;48.732;9.248;2022-07-26T12:49:57;1.80;;;0.80;;
7306;SDS011;3694;48.732;9.248;2022-07-26T12:52:22;1.20;;;0.70;;
7306;SDS011;3694;48.732;9.248;2022-07-26T12:54:49;0.75;;;0.70;;
7306;SDS011;3694;48.732;9.248;2022-07-26T12:57:16;0.90;;;0.85;;
7306;SDS011;3694;48.732;9.248;2022-07-26T12:59:43;1.85;;;0.80;;
7306;SDS011;3694;48.732;9.248;2022-07-26T13:02:09;0.65;;;0.65;;
7306;SDS011;3694;48.732;9.248;2022-07-26T13:04:35;1.52;;;0.80;;
7306;SDS011;3694;48.732;9.248;2022-07-26T13:07:02;2.78;;;0.70;;
7306;SDS011;3694;48.732;9.248;2022-07-26T13:09:28;1.15;;;0.70;;
7306;SDS011;3694;48.732;9.248;2022-07-26T13:11:55;2.63;;;0.73;;
7306;SDS011;3694;48.732;9.248;2022-07-26T13:14:20;0.60;;;0.60;;
7306;SDS011;3694;48.732;9.248;2022-07-26T13:16:49;1.98;;;0.70;;
7306;SDS011;3694;48.732;9.248;2022-07-26T13:19:15;1.42;;;0.70;;
7306;SDS011;3694;48.732;9.248;2022-07-26T13:21:40;0.77;;;0.60;;
7306;SDS011;3694;48.732;9.248;2022-07-26T13:24:06;1.27;;;0.63;;
7306;SDS011;3694;48.732;9.248;2022-07-26T13:26:32;0.65;;;0.50;;
7306;SDS011;3694;48.732;9.248;2022-07-26T13:28:58;1.30;;;0.50;;
7306;SDS011;3694;48.732;9.248;2022-07-26T13:31:24;2.00;;;0.77;;
7306;SDS011;3694;48.732;9.248;2022-07-26T13:33:50;0.65;;;0.57;;
7306;SDS011;3694;48.732;9.248;2022-07-26T13:36:15;1.00;;;0.50;;
7306;SDS011;3694;48.732;9.248;2022-07-26T13:38:41;0.98;;;0.63;;
7306;SDS011;3694;48.732;9.248;2022-07-26T13:41:08;0.90;;;0.57;;
7306;SDS011;3694;48.732;9.248;2022-07-26T13:43:34;0.77;;;0.60;;
7306;SDS011;3694;48.732;9.248;2022-07-26T13:46:00;1.88;;;0.68;;
7306;SDS011;3694;48.732;9.248;2022-07-26T13:48:26;0.75;;;0.60;;
7306;SDS011;3694;48.732;9.248;2022-07-26T13:50:55;1.15;;;0.60;;
7306;SDS011;3694;48.732;9.248;2022-07-26T13:53:21;1.00;;;0.50;;
7306;SDS011;3694;48.732;9.248;2022-07-26T13:55:48;1.38;;;0.70;;
7306;SDS011;3694;48.732;9.248;2022-07-26T13:58:14;1.23;;;0.70;;
7306;SDS011;3694;48.732;9.248;2022-07-26T14:00:40;1.17;;;0.63;;
7306;SDS011;3694;48.732;9.248;2022-07-26T14:03:05;1.30;;;0.47;;
7306;SDS011;3694;48.732;9.248;2022-07-26T14:05:31;1.58;;;0.65;;
7306;SDS011;3694;48.732;9.248;2022-07-26T14:07:57;1.60;;;0.75;;
7306;SDS011;3694;48.732;9.248;2022-07-26T14:10:22;1.10;;;0.60;;
7306;SDS011;3694;48.732;9.248;2022-07-26T14:12:49;2.78;;;0.70;;
7306;SDS011;3694;48.732;9.248;2022-07-26T14:15:15;2.13;;;0.75;;
7306;SDS011;3694;48.732;9.248;2022-07-26T14:17:41;0.65;;;0.63;;
7306;SDS011;3694;48.732;9.248;2022-07-26T14:20:06;1.77;;;0.70;;
7306;SDS011;3694;48.732;9.248;2022-07-26T14:22:33;1.13;;;0.60;;
7306;SDS011;3694;48.732;9.248;2022-07-26T14:24:58;0.75;;;0.70;;
7306;SDS011;3694;48.732;9.248;2022-07-26T14:27:24;0.50;;;0.50;;
7306;SDS011;3694;48.732;9.248;2022-07-26T14:29:50;2.47;;;0.50;;
7306;SDS011;3694;48.732;9.248;2022-07-26T14:32:15;1.02;;;0.50;;
7306;SDS011;3694;48.732;9.248;2022-07-26T14:34:41;0.60;;;0.60;;
7306;SDS011;3694;48.732;9.248;2022-07-26T14:37:06;1.63;;;0.60;;
7306;SDS011;3694;48.732;9.248;2022-07-26T14:39:32;0.63;;;0.45;;
7306;SDS011;3694;48.732;9.248;2022-07-26T14:41:58;0.95;;;0.40;;
7306;SDS011;3694;48.732;9.248;2022-07-26T14:44:25;1.42;;;0.47;;
7306;SDS011;3694;48.732;9.248;2022-07-26T14:46:51;1.02;;;0.70;;
7306;SDS011;3694;48.732;9.248;2022-07-26T14:49:17;0.95;;;0.60;;
7306;SDS011;3694;48.732;9.248;2022-07-26T14:51:43;1.75;;;0.70;;
7306;SDS011;3694;48.732;9.248;2022-07-26T14:54:08;2.45;;;0.50;;
7306;SDS011;3694;48.732;9.248;2022-07-26T14:56:38;2.47;;;0.60;;
7306;SDS011;3694;48.732;9.248;2022-07-26T14:59:03;1.30;;;0.60;;
7306;SDS011;3694;48.732;9.248;2022-07-26T15:01:29;1.42;;;0.57;;
7306;SDS011;3694;48.732;9.248;2022-07-26T15:03:57;0.60;;;0.60;;
7306;SDS011;3694;48.732;9.248;2022-07-26T15:06:23;1.33;;;0.70;;
7306;SDS011;3694;48.732;9.248;2022-07-26T15:08:48;0.77;;;0.60;;
7306;SDS011;3694;48.732;9.248;2022-07-26T15:11:23;0.50;;;0.40;;
7306;SDS011;3694;48.732;9.248;2022-07-26T15:13:49;0.47;;;0.47;;
7306;SDS011;3694;48.732;9.248;2022-07-26T15:16:34;1.75;;;0.85;;
7306;SDS011;3694;48.732;9.248;2022-07-26T15:19:00;2.50;;;0.90;;
7306;SDS011;3694;48.732;9.248;2022-07-26T15:21:25;0.63;;;0.50;;
7306;SDS011;3694;48.732;9.248;2022-07-26T15:23:51;0.75;;;0.43;;
7306;SDS011;3694;48.732;9.248;2022-07-26T15:26:17;1.15;;;0.50;;
7306;SDS011;3694;48.732;9.248;2022-07-26T15:28:42;0.40;;;0.40;;
7306;SDS011;3694;48.732;9.248;2022-07-26T15:31:17;1.48;;;0.60;;
7306;SDS011;3694;48.732;9.248;2022-07-26T15:33:42;0.52;;;0.50;;
7306;SDS011;3694;48.732;9.248;2022-07-26T15:36:08;1.58;;;0.65;;
7306;SDS011;3694;48.732;9.248;2022-07-26T15:38:33;0.70;;;0.70;;
7306;SDS011;3694;48.732;9.248;2022-07-26T15:40:59;0.80;;;0.60;;
7306;SDS011;3694;48.732;9.248;2022-07-26T15:43:25;1.63;;;0.70;;